Date,TemperatureHighF,TemperatureAvgF,TemperatureLowF,DewpointHighF,DewpointAvgF,DewpointLowF,HumidityHigh,HumidityAvg,HumidityLow,PressureMaxIn,PressureMinIn,WindSpeedMaxMPH,WindSpeedAvgMPH,GustSpeedMaxMPH,PrecipitationSumIn
2013-1-1,27.3,5.0,18.8,19.0,-75.2,-99.9,74,15,68,30.06,29.84,5,-784,0,0.00
2013-1-2,-200.0,0.0,200.0,-99.9,-99.9,-99.9,0,0,100,30.19,30.00,0,-999,0,0.00
2013-1-3,30.1,10.0,16.3,22.0,-54.1,-99.9,74,27,63,30.18,29.99,6,-607,0,0.00
2013-1-4,37.5,12.0,33.5,27.0,-56.9,-99.9,72,23,61,30.01,29.88,23,-652,0,0.01
2013-1-5,-200.0,0.0,200.0,-99.9,-99.9,-99.9,0,0,100,30.29,30.02,0,-999,0,0.00
2013-1-6,39.3,15.7,35.6,31.0,-46.6,-99.9,71,28,55,30.06,29.89,11,-581,0,0.02
2013-1-7,33.7,8.2,30.0,26.0,-68.5,-99.9,74,18,70,30.39,30.07,9,-746,0,0.01
2013-1-8,43.0,12.9,32.8,29.0,-58.1,-99.9,72,21,57,30.32,30.17,6,-669,0,0.00
2013-1-9,50.5,13.3,42.5,39.0,-61.6,-99.9,69,19,62,30.30,29.95,16,-716,0,0.00
2013-1-10,47.0,15.5,36.3,32.0,-52.5,-99.9,71,23,57,30.58,30.31,7,-637,0,0.00
2013-1-11,-200.0,0.0,200.0,-99.9,-99.9,-99.9,0,0,100,30.43,29.90,0,-999,0,0.00
2013-1-12,59.0,18.6,-90.0,48.0,-45.1,-99.9,67,25,38,30.04,29.94,7,-561,0,0.00
2013-1-13,70.0,24.5,61.4,57.0,-43.0,-99.9,65,23,55,29.96,29.73,9,-623,0,0.00
2013-1-14,37.3,10.9,33.7,28.0,-61.2,-99.9,70,21,63,30.38,29.72,18,-690,0,0.00
2013-1-15,37.0,10.1,31.0,24.0,-64.3,-99.9,68,18,56,30.40,30.18,5,-707,0,0.00
2013-1-16,39.7,8.8,35.1,30.0,-69.9,-99.9,69,16,65,30.17,29.78,6,-765,0,0.00
2013-1-17,-200.0,0.0,200.0,-99.9,-99.9,-99.9,0,0,100,30.17,29.84,0,-999,0,0.00
2013-1-18,26.2,10.1,14.6,15.0,-50.5,-99.9,73,28,55,30.44,30.06,13,-556,0,0.00
2013-1-19,48.3,12.9,44.9,33.0,-63.5,-99.9,62,16,54,30.05,29.60,14,-722,0,0.00
2013-1-20,35.4,11.9,24.8,23.0,-52.3,-99.9,71,24,48,30.08,29.44,26,-587,0,0.00
2013-1-21,-200.0,0.0,200.0,-99.9,-99.9,-99.9,0,0,100,30.06,29.84,0,-999,0,0.00
2013-1-22,15.8,5.8,9.9,0.0,-57.6,-99.9,59,22,46,30.19,29.85,16,-566,0,0.00
2013-1-23,16.1,5.6,8.1,7.0,-54.7,-99.9,75,30,57,30.25,30.12,6,-564,0,0.00
2013-1-24,17.5,4.9,11.6,11.0,-63.9,-99.9,74,24,69,30.53,30.11,14,-661,0,0.00
2013-1-25,-200.0,0.0,200.0,-99.9,-99.9,-99.9,0,0,100,30.51,30.05,0,-999,0,0.00
2013-1-26,26.1,9.2,7.9,16.0,-50.0,-99.9,74,31,63,30.40,30.05,5,-551,0,0.00
2013-1-27,31.0,9.1,22.8,20.0,-60.2,-99.9,73,23,61,30.57,30.39,4,-662,0,0.00
2013-1-28,-200.0,0.0,200.0,-99.9,-99.9,-99.9,0,0,100,30.36,29.86,0,-999,0,0.00
2013-1-29,-90.0,-34.1,-90.0,-99.9,-99.9,-99.9,0,0,100,30.16,29.94,7,-609,0,0.32
2013-1-30,66.2,20.9,62.4,51.0,-52.1,-99.9,62,18,30,29.97,29.01,16,-671,0,0.05
2013-1-31,32.2,12.3,26.8,22.0,-52.0,-99.9,68,25,53,29.69,28.98,26,-589,0,0.00
2013-2-1,22.9,7.1,19.8,13.0,-63.6,-99.9,68,21,49,30.20,29.70,11,-672,0,0.01
2013-2-2,-200.0,0.0,200.0,-99.9,-99.9,-99.9,0,0,100,30.20,29.93,0,-999,0,0.00
2013-2-3,27.9,10.9,8.8,17.0,-47.7,-99.9,68,28,49,29.93,29.79,7,-530,0,0.00
2013-2-4,24.2,9.2,20.8,12.0,-54.4,-99.9,67,25,52,29.95,29.85,15,-587,0,0.00
2013-2-5,28.7,10.5,18.9,19.0,-53.0,-99.9,68,27,62,29.98,29.85,7,-594,0,0.00
2013-2-6,28.8,10.0,21.2,18.0,-56.7,-99.9,68,23,55,30.39,29.87,16,-623,0,0.00
2013-2-7,31.6,10.6,25.4,21.0,-57.0,-99.9,68,23,62,30.44,30.10,11,-636,0,0.00
2013-2-8,-200.0,0.0,200.0,-99.9,-99.9,-99.9,0,0,100,30.10,29.77,0,-999,0,0.00
2013-2-9,22.2,9.6,19.5,12.0,-49.9,-99.9,65,28,54,30.43,30.03,0,-541,0,0.00
2013-2-10,33.0,11.6,2.5,25.0,-46.0,-99.9,71,31,62,30.42,30.00,0,-531,0,0.02
2013-2-11,55.5,16.6,38.7,44.0,-49.6,-99.9,70,25,63,30.00,29.55,18,-620,0,0.16
2013-2-12,-200.0,0.0,200.0,-99.9,-99.9,-99.9,0,0,100,29.93,29.69,0,-999,0,0.00
2013-2-13,44.0,14.4,32.6,27.0,-52.5,-99.9,71,23,52,29.88,29.71,5,-623,0,0.00
2013-2-14,44.2,13.7,36.9,32.0,-56.9,-99.9,70,20,47,29.92,29.77,6,-662,0,0.04
2013-2-15,40.0,14.4,32.8,29.0,-51.8,-99.9,68,23,54,30.05,29.76,18,-611,0,0.00
2013-2-16,32.6,12.5,25.3,19.0,-49.0,-99.9,71,27,47,30.05,29.92,7,-561,0,0.00
2013-2-17,19.0,6.0,14.2,12.0,-59.1,-99.9,75,27,68,30.19,29.89,16,-621,0,0.01
2013-2-18,32.5,11.9,16.2,18.0,-48.2,-99.9,75,28,53,30.30,29.93,6,-551,0,0.01
2013-2-19,49.2,7.3,32.1,39.0,-74.9,-99.9,72,13,52,29.94,29.55,13,-800,0,0.01
2013-2-20,25.5,9.5,23.4,16.0,-55.6,-99.9,71,26,61,30.05,29.75,18,-609,0,0.00
2013-2-21,22.0,8.7,16.2,15.0,-50.3,-99.9,75,32,72,30.42,30.03,15,-555,0,0.00
2013-2-22,36.1,11.0,28.2,28.0,-58.4,-99.9,72,23,53,30.41,30.02,13,-661,0,0.00
2013-2-23,-200.0,0.0,200.0,-99.9,-99.9,-99.9,0,0,100,30.02,29.84,0,-999,0,0.00
2013-2-24,34.6,11.7,30.4,26.0,-55.5,-99.9,72,25,60,30.05,29.82,12,-636,0,0.00
2013-2-25,39.2,16.0,35.7,30.0,-45.7,-99.9,72,29,65,30.23,30.05,6,-578,0,0.00
2013-2-26,45.9,18.1,31.8,32.0,-43.8,-99.9,72,27,57,30.23,29.84,13,-566,0,0.00
2013-2-27,-200.0,0.0,200.0,-99.9,-99.9,-99.9,0,0,100,29.82,29.54,0,-999,0,0.00
2013-2-28,39.3,-0.7,-90.0,26.0,-62.4,-99.9,61,17,46,29.78,29.51,11,-556,0,0.21
2013-3-1,-200.0,0.0,200.0,-99.9,-99.9,-99.9,0,0,100,29.89,29.76,0,-999,0,0.00
2013-3-2,26.5,12.5,23.1,18.0,-42.2,-99.9,72,34,64,29.93,29.87,9,-498,0,0.00
2013-3-3,-200.0,0.0,200.0,-99.9,-99.9,-99.9,0,0,100,29.88,29.85,0,-999,0,0.00
2013-3-4,31.3,14.4,22.9,23.0,-38.6,-99.9,74,37,68,30.04,29.85,18,-486,0,0.01
2013-3-5,33.5,5.1,28.3,25.0,-80.1,-99.9,73,12,70,30.10,29.98,10,-837,0,0.00
2013-3-6,42.1,15.4,36.8,33.0,-49.6,-99.9,72,27,64,30.13,29.96,11,-612,0,0.00
2013-3-7,40.5,17.5,33.5,32.0,-39.7,-99.9,73,33,63,30.27,30.11,6,-532,0,0.00
2013-3-8,44.2,18.6,33.5,28.0,-41.9,-99.9,70,27,51,30.39,30.25,10,-540,0,0.00
2013-3-9,50.3,17.4,35.9,35.0,-49.0,-99.9,71,23,52,30.41,30.22,8,-613,0,0.00
2013-3-10,65.9,29.1,52.2,35.0,-35.5,-99.9,42,17,31,30.22,29.96,10,-509,0,0.00
2013-3-11,56.2,12.3,55.0,39.0,-69.5,-99.9,52,11,47,29.98,29.67,21,-775,0,0.00
2013-3-12,46.0,20.0,37.9,36.0,-35.7,-99.9,71,34,63,29.91,29.66,13,-510,0,0.00
2013-3-13,41.4,20.0,29.9,29.0,-31.5,-99.9,71,35,57,29.93,29.82,15,-452,0,0.00
2013-3-14,34.4,14.7,23.4,19.0,-46.4,-99.9,73,23,38,30.05,29.93,21,-524,0,0.00
2013-3-15,39.1,6.9,36.0,30.0,-76.1,-99.9,72,13,69,30.04,29.72,13,-813,0,0.00
2013-3-16,32.0,12.9,23.0,22.0,-45.1,-99.9,74,32,57,29.98,29.84,4,-541,0,0.00
2013-3-17,31.7,13.5,24.4,24.0,-44.4,-99.9,73,31,57,30.34,29.97,5,-530,0,0.05
2013-3-18,-200.0,0.0,200.0,-99.9,-99.9,-99.9,0,0,100,30.35,29.72,0,-999,0,0.00
2013-3-19,38.7,15.5,28.3,27.0,-43.3,-99.9,74,30,46,29.82,29.65,20,-538,0,0.16
2013-3-20,37.1,15.9,28.1,24.0,-40.4,-99.9,73,32,49,29.83,29.79,18,-507,0,0.01
2013-3-21,32.1,12.8,26.5,23.0,-48.1,-99.9,73,28,52,29.82,29.71,12,-560,0,0.00
2013-3-22,-200.0,0.0,200.0,-99.9,-99.9,-99.9,0,0,100,29.89,29.73,0,-999,0,0.00
2013-3-23,39.9,21.5,30.5,28.0,-26.3,-99.9,73,38,59,29.99,29.86,16,-411,0,0.03
2013-3-24,42.8,18.3,33.1,29.0,-39.1,-99.9,72,30,54,29.99,29.74,7,-515,0,0.00
2013-3-25,44.7,16.3,35.9,32.0,-47.8,-99.9,72,26,58,29.72,29.59,6,-596,0,0.00
2013-3-26,50.1,21.7,37.9,35.0,-37.0,-99.9,71,28,52,29.92,29.71,9,-519,0,0.00
2013-3-27,48.0,19.7,36.4,35.0,-38.4,-99.9,71,30,53,30.05,29.90,16,-523,0,0.05
2013-3-28,45.1,15.0,40.2,35.0,-53.5,-99.9,71,24,63,30.19,30.03,8,-651,0,0.00
2013-3-29,52.8,24.4,38.6,37.0,-31.2,-99.9,71,30,45,30.19,30.10,10,-482,0,0.00
2013-3-30,55.1,28.3,28.4,34.0,-24.3,-99.9,71,28,34,30.19,30.04,10,-409,0,0.00
2013-3-31,-200.0,0.0,200.0,-99.9,-99.9,-99.9,0,0,100,30.04,29.59,0,-999,0,0.00
2013-4-1,39.6,17.1,28.5,28.0,-41.4,-99.9,72,28,47,29.94,29.54,18,-517,0,0.00
2013-4-2,34.4,13.9,28.4,26.0,-46.0,-99.9,73,30,58,30.10,29.93,15,-554,0,0.00
2013-4-3,38.4,16.8,30.4,21.0,-43.3,-99.9,62,24,40,30.37,30.10,16,-518,0,0.00
2013-4-4,58.7,26.0,35.8,25.0,-36.0,-99.9,60,19,26,30.34,29.91,10,-480,0,0.00
2013-4-5,46.8,20.7,34.9,31.0,-38.8,-99.9,63,26,47,30.13,29.86,12,-513,0,0.00
2013-4-6,49.7,22.9,36.6,24.0,-37.2,-99.9,55,21,33,30.32,30.04,9,-481,0,0.00
2013-4-7,73.9,36.1,50.0,49.0,-18.7,-99.9,66,27,36,30.04,29.70,17,-423,0,0.00
2013-4-8,60.2,29.5,45.0,45.0,-24.5,-99.9,68,32,54,30.10,29.74,11,-461,0,0.02
2013-4-9,67.3,26.0,47.1,50.0,-34.3,-99.9,68,28,50,30.08,29.73,6,-538,0,0.03
2013-4-10,-200.0,0.0,200.0,-99.9,-99.9,-99.9,0,0,100,30.02,29.84,0,-999,0,0.00
2013-4-11,36.8,3.3,-90.0,16.0,-59.5,-99.9,45,16,37,30.15,29.95,12,-534,0,0.20
2013-4-12,-200.0,0.0,200.0,-99.9,-99.9,-99.9,0,0,100,30.00,29.59,0,-999,0,0.00
2013-4-13,47.4,23.6,40.6,35.0,-30.4,-99.9,63,31,48,29.92,29.75,19,-463,0,0.00
2013-4-14,49.7,24.6,39.8,34.0,-27.9,-99.9,63,32,51,30.19,29.93,14,-446,0,0.00
2013-4-15,77.2,37.4,48.8,52.0,-19.0,-99.9,62,27,40,30.17,29.98,12,-451,0,0.00
2013-4-16,68.1,24.2,-90.0,53.0,-32.6,-99.9,61,21,26,30.24,29.93,14,-436,0,0.09
2013-4-17,58.6,30.6,40.1,39.0,-21.2,-99.9,62,30,36,30.36,30.23,11,-414,0,0.00
2013-4-18,78.7,34.7,65.3,60.0,-26.2,-99.9,62,25,43,30.23,29.70,19,-519,0,0.00
2013-4-19,75.1,25.6,43.2,61.0,-36.7,-99.9,63,24,37,29.75,29.34,26,-542,0,0.10
2013-4-20,43.3,23.8,36.5,30.0,-25.0,-99.9,64,34,52,30.40,29.72,25,-402,0,0.01
2013-4-21,47.4,21.8,35.3,28.0,-35.0,-99.9,64,27,43,30.68,30.41,6,-478,0,0.00
2013-4-22,60.7,29.5,47.2,33.0,-32.0,-99.9,55,19,31,30.60,30.33,15,-476,0,0.00
2013-4-23,64.2,33.3,46.1,42.0,-19.8,-99.9,63,29,43,30.34,29.94,14,-420,0,0.00
2013-4-24,72.4,29.2,46.7,57.0,-32.4,-99.9,61,25,34,29.95,29.58,18,-533,0,0.07
2013-4-25,60.5,31.2,38.8,37.0,-20.4,-99.9,63,29,33,30.29,29.97,10,-394,0,0.00
2013-4-26,58.2,28.9,44.6,36.0,-26.7,-99.9,63,27,33,30.45,30.29,12,-402,0,0.00
2013-4-27,73.5,35.8,52.9,43.0,-24.3,-99.9,61,21,30,30.43,30.20,9,-457,0,0.00
2013-4-28,76.7,37.1,56.8,48.0,-24.1,-99.9,60,21,28,30.20,30.00,18,-465,0,0.03
2013-4-29,65.6,35.0,55.3,51.0,-17.5,-99.9,60,31,34,30.04,29.96,12,-424,0,0.00
2013-4-30,74.1,40.1,60.5,57.0,-10.4,-99.9,62,33,31,30.20,30.03,15,-403,0,0.00
2013-5-1,79.8,43.1,61.7,52.0,-16.4,-99.9,62,20,24,30.32,30.20,10,-414,0,0.00
2013-5-2,81.4,42.9,65.5,47.0,-18.2,-99.9,46,19,24,30.38,30.23,11,-429,0,0.00
2013-5-3,78.9,46.1,59.4,50.0,-7.4,-99.9,61,25,34,30.27,30.18,12,-372,0,0.00
2013-5-4,76.0,43.7,54.0,48.0,-9.6,-99.9,61,26,34,30.25,30.11,11,-376,0,0.00
2013-5-5,78.9,45.7,55.8,51.0,-9.0,-99.9,61,24,26,30.18,30.04,10,-373,0,0.00
2013-5-6,78.7,43.9,52.4,47.0,-13.3,-99.9,62,22,22,30.13,29.98,7,-388,0,0.00
2013-5-7,81.6,46.5,63.0,58.0,-3.6,-99.9,61,31,34,30.09,29.96,9,-373,0,0.00
2013-5-8,70.6,26.2,-90.0,51.0,-26.5,-99.9,52,22,24,30.02,29.91,11,-373,0,0.24
2013-5-9,76.4,5.7,-90.0,58.0,-46.7,-99.9,56,15,19,30.01,29.87,4,-374,0,0.00
2013-5-10,76.7,6.0,-90.0,58.0,-46.7,-99.9,59,17,18,30.00,29.75,14,-373,0,0.14
2013-5-11,61.8,22.3,-90.0,45.0,-33.1,-99.9,57,23,29,29.80,29.70,12,-444,0,0.00
2013-5-12,52.4,28.6,40.6,36.0,-20.9,-99.9,62,32,39,29.90,29.69,14,-392,0,0.01
2013-5-13,52.3,23.0,42.9,35.0,-36.1,-99.9,63,28,51,30.11,29.90,11,-519,0,0.00
2013-5-14,61.5,32.3,46.9,37.0,-23.0,-99.9,59,25,34,30.15,29.95,9,-426,0,0.00
2013-5-15,83.9,37.9,57.4,65.0,-21.1,-99.9,56,26,31,29.94,29.49,26,-485,0,0.00
2013-5-16,79.5,45.4,57.1,52.0,-8.5,-99.9,60,25,27,29.96,29.69,11,-372,0,0.00
2013-5-17,70.9,38.7,48.0,48.0,-12.1,-99.9,62,29,32,30.20,29.97,5,-378,0,0.00
2013-5-18,73.9,30.4,61.3,53.0,-34.2,-99.9,61,22,45,30.24,30.11,10,-561,0,0.00
2013-5-19,81.6,45.7,64.7,65.0,-4.3,-99.9,60,33,30,30.12,29.96,9,-384,0,0.00
2013-5-20,89.4,53.0,69.5,71.0,5.4,-99.9,61,34,28,30.01,29.81,8,-353,0,0.00
2013-5-21,90.5,37.9,71.7,73.0,-28.0,-99.9,60,20,22,29.88,29.70,10,-467,0,0.42
2013-5-22,91.0,10.9,-90.0,71.0,-49.4,-99.9,65,16,39,29.80,29.67,5,-514,0,0.02
2013-5-23,77.1,38.3,-90.0,60.0,-19.1,-99.9,57,23,19,29.84,29.67,13,-422,0,0.16
2013-5-24,52.9,-28.9,-90.0,39.0,-75.3,-99.9,62,12,59,30.30,29.84,3,-399,0,0.06
2013-5-25,61.8,32.5,-90.0,41.0,-15.2,-99.9,63,32,45,30.32,30.11,6,-368,0,0.00
2013-5-26,65.5,37.2,49.5,41.0,-14.9,-99.9,63,28,36,30.18,30.09,10,-374,0,0.00
2013-5-27,76.3,42.4,50.4,46.0,-9.8,-99.9,59,26,31,30.25,30.11,6,-364,0,0.00
2013-5-28,67.5,-11.6,-90.0,43.0,-80.9,-99.9,41,6,29,30.13,30.00,6,-551,0,0.63
2013-5-29,85.8,31.1,-59.1,68.0,-25.9,-99.9,57,24,30,30.11,29.99,14,-404,0,0.01
2013-5-30,93.5,41.2,75.0,70.0,-22.8,-99.9,58,22,23,30.09,30.00,7,-531,0,0.00
2013-5-31,96.6,43.9,77.8,73.0,-19.1,-99.9,57,22,20,30.03,29.87,9,-499,0,0.00
2013-6-1,91.8,46.9,75.8,72.0,-9.7,-99.9,58,27,20,29.93,29.72,13,-342,0,0.00
2013-6-2,80.8,32.6,-90.0,61.0,-28.8,-99.9,58,24,22,29.83,29.65,14,-518,0,0.04
2013-6-3,69.4,31.7,55.7,50.0,-26.7,-99.9,61,27,47,29.99,29.83,7,-498,0,0.00
2013-6-4,73.2,41.5,53.0,46.0,-9.3,-99.9,61,28,33,30.14,29.99,6,-363,0,0.00
2013-6-5,71.3,38.8,55.4,52.0,-11.8,-99.9,59,31,39,30.20,30.06,10,-394,0,0.00
2013-6-6,-200.0,0.0,200.0,-99.9,-99.9,-99.9,0,0,100,30.07,29.82,0,-999,0,0.00
2013-6-7,-48.4,-20.7,-77.4,-65.0,-99.1,-99.9,80,2,65,30.01,29.79,2,-609,0,0.02
2013-6-8,-200.0,0.0,200.0,-99.9,-99.9,-99.9,0,0,100,30.15,29.94,0,-999,0,0.00
2013-6-9,79.4,31.6,-63.7,60.0,-20.0,-99.9,61,28,49,30.32,30.06,4,-368,0,0.00
2013-6-10,-200.0,0.0,200.0,-99.9,-99.9,-99.9,0,0,100,30.12,29.69,0,-999,0,0.00
2013-6-11,66.9,-39.1,-90.0,41.0,-98.1,-99.9,39,1,36,30.01,29.62,5,-477,0,0.03
2013-6-12,79.0,28.7,-90.0,59.0,-19.9,-99.9,58,28,49,30.10,29.77,5,-364,0,0.00
2013-6-13,-63.7,-32.2,-75.1,-99.9,-99.9,-99.9,0,0,100,29.95,29.48,6,-536,0,1.24
2013-6-14,79.0,26.6,-79.7,60.0,-31.7,-99.9,58,24,44,30.09,29.95,2,-479,0,0.00
2013-6-15,78.8,33.7,-70.5,57.0,-18.7,-99.9,58,26,36,30.05,29.93,0,-385,0,0.00
2013-6-16,78.7,1.2,-86.6,53.0,-58.8,-99.9,55,11,19,29.93,29.68,1,-442,0,0.13
2013-6-17,83.4,9.1,-86.6,63.0,-48.2,-99.9,58,16,21,29.96,29.86,1,-364,0,0.58
2013-6-18,71.3,16.1,-90.0,53.0,-36.7,-99.9,58,22,26,30.05,29.92,6,-416,0,0.00
2013-6-19,73.0,34.8,55.0,52.0,-24.6,-99.9,60,25,41,30.17,30.04,1,-489,0,0.00
2013-6-20,83.1,41.1,-59.1,57.0,-7.5,-99.9,59,28,29,30.24,30.17,0,-316,0,0.00
2013-6-21,88.6,44.1,-37.8,63.0,10.2,-99.9,59,33,25,30.28,30.16,1,0,0,0.00
2013-6-22,90.0,38.0,-27.3,71.0,-7.7,-99.9,57,26,17,30.17,30.00,3,0,0,0.02
2013-6-23,92.4,53.7,-21.4,73.0,15.8,-99.9,57,35,24,30.08,30.00,6,1,0,0.08
2013-6-24,92.5,75.7,-18.4,73.0,51.0,-99.9,59,46,21,30.02,29.90,7,1,0,0.00
2013-6-25,86.9,71.4,-15.1,69.0,43.0,-99.9,57,42,21,29.91,29.76,11,1,0,0.00
2013-6-26,89.0,51.6,-90.0,71.0,17.3,-99.9,57,32,17,29.81,29.76,9,1,0,0.00
2013-6-27,84.4,-19.2,-90.0,60.0,-44.2,-99.9,47,12,14,29.82,29.72,11,1,0,0.84
2013-6-28,-10.7,-20.4,-47.2,-99.9,-99.9,-99.9,0,0,100,29.72,29.60,6,0,0,0.30
2013-6-29,79.9,11.4,-49.5,62.0,-54.6,-99.9,54,15,28,29.73,29.59,4,0,0,0.06
2013-6-30,82.1,16.6,-75.1,63.0,-30.3,-99.9,54,21,19,29.98,29.73,5,0,0,0.09
2013-7-1,-14.3,-30.4,-61.4,-99.9,-99.9,-99.9,0,0,100,30.16,29.96,5,0,0,0.66
2013-7-2,85.7,-8.8,-70.5,64.0,-76.9,-99.9,65,8,29,30.17,30.08,4,0,0,0.05
2013-7-3,92.1,-15.2,-90.0,74.0,-65.7,-99.9,65,11,32,30.24,30.15,6,1,0,0.53
2013-7-4,90.4,-11.5,-90.0,72.0,-61.7,-99.9,57,12,37,30.26,30.19,4,0,0,0.16
2013-7-5,88.9,-33.5,-90.0,69.0,-69.2,-99.9,52,10,23,30.25,30.14,5,0,0,0.96
2013-7-6,91.2,13.8,-90.0,71.0,-31.6,-99.9,56,21,24,30.25,30.07,3,0,0,0.00
2013-7-7,88.7,15.6,-90.0,69.0,-9.5,-99.9,54,28,38,30.10,29.99,11,1,0,0.10
2013-7-8,88.4,-2.8,-90.0,69.0,-20.7,-99.9,53,23,24,30.10,30.00,5,1,0,0.02
2013-7-9,86.3,-13.1,-90.0,67.0,-37.1,-99.9,52,18,23,30.14,29.99,6,0,0,0.01
2013-7-10,90.3,17.1,-90.0,70.0,-5.6,-99.9,54,28,32,29.98,29.77,9,2,0,0.00
2013-7-11,84.5,72.5,66.9,65.0,51.7,-99.9,59,50,28,29.99,29.85,4,1,0,0.00
2013-7-12,78.5,4.8,-90.0,59.0,-28.1,-99.9,55,23,25,30.23,29.99,9,1,0,0.00
2013-7-13,82.4,7.9,-90.0,59.0,-15.9,-99.9,46,21,20,30.29,30.23,6,1,0,0.00
2013-7-14,96.2,18.9,-90.0,75.0,-3.8,-99.9,53,26,18,30.36,30.26,4,0,0,0.00
2013-7-15,95.4,8.7,-90.0,74.0,-12.2,-99.9,55,25,22,30.34,30.26,2,0,0,0.00
2013-7-16,96.8,27.5,-90.0,74.0,1.4,-99.9,56,28,21,30.33,30.22,2,0,0,0.00
2013-7-17,98.7,36.4,-90.0,76.0,13.6,-99.9,56,32,29,30.26,30.08,5,1,0,0.00
2013-7-18,93.4,32.5,-90.0,69.0,4.8,-99.9,50,23,16,30.11,29.97,6,1,0,0.03
2013-7-19,95.5,88.1,78.1,73.0,61.2,37.0,57,42,21,29.97,29.66,13,4,0,0.00
2013-7-20,80.1,-16.6,-90.0,55.0,-46.3,-99.9,44,14,20,29.97,29.75,9,1,0,0.68
2013-7-21,81.2,3.3,-90.0,60.0,-21.9,-99.9,53,24,24,30.12,29.98,5,1,0,0.01
2013-7-22,82.5,4.8,-90.0,61.0,-17.9,-99.9,50,23,20,30.06,29.84,10,1,0,0.02
2013-7-23,88.3,5.6,-90.0,67.0,-18.3,-99.9,55,24,30,29.84,29.67,7,1,0,0.06
2013-7-24,71.9,65.3,55.8,52.0,44.4,24.0,60,48,29,30.03,29.74,4,0,0,0.00
2013-7-25,77.7,41.2,-90.0,55.0,-1.6,-99.9,57,31,25,30.12,30.03,9,1,0,0.00
2013-7-26,82.8,37.5,-90.0,62.0,-5.4,-99.9,56,30,25,30.13,30.01,5,0,0,0.00
2013-7-27,83.9,14.0,-90.0,64.0,-7.5,-99.9,53,26,20,30.00,29.86,5,0,0,0.15
2013-7-28,78.1,-10.1,-90.0,57.0,-41.7,-99.9,51,17,25,30.06,29.88,6,0,0,0.11
2013-7-29,76.0,7.6,-90.0,56.0,-11.9,-99.9,55,25,25,30.18,30.07,6,1,0,0.01
2013-7-30,80.0,39.7,-90.0,60.0,14.4,-99.9,55,34,23,30.22,30.15,5,0,0,0.00
2013-7-31,84.2,23.4,-90.0,63.0,-8.7,-99.9,55,26,19,30.18,29.96,5,1,0,0.00
2013-8-1,80.7,48.3,-90.0,61.0,12.4,-99.9,53,26,20,29.96,29.77,7,1,0,0.25
2013-8-2,82.3,12.1,-90.0,62.0,-10.8,-99.9,57,24,18,29.98,29.87,6,1,0,0.06
2013-8-3,80.2,10.4,-90.0,58.0,-12.9,-99.9,56,27,21,29.96,29.86,5,1,0,0.14
2013-8-4,76.3,51.8,-90.0,56.0,25.9,-99.9,58,37,20,30.04,29.95,10,1,0,0.00
2013-8-5,79.8,39.4,-90.0,57.0,-3.2,-99.9,57,28,20,30.12,30.02,5,0,0,0.00
2013-8-6,81.7,39.3,-90.0,61.0,3.7,-99.9,56,30,23,30.06,29.99,6,1,0,0.00
2013-8-7,82.9,75.3,68.2,64.0,47.6,29.0,54,39,20,30.00,29.85,12,2,0,0.00
2013-8-8,90.8,5.3,-90.0,69.0,-18.6,-99.9,51,20,17,29.98,29.87,4,0,0,0.70
2013-8-9,81.2,-20.4,-90.0,59.0,-53.3,-99.9,52,13,27,30.04,29.96,4,0,0,0.37
2013-8-10,78.5,39.5,-90.0,57.0,16.7,-99.9,59,35,26,30.12,30.03,6,1,0,0.00
2013-8-11,81.2,32.9,-90.0,58.0,-8.1,-99.9,57,28,24,30.14,30.04,5,0,0,0.00
2013-8-12,83.5,50.3,-90.0,62.0,6.0,-99.9,54,31,22,30.05,29.84,4,0,0,0.00
2013-8-13,78.1,25.7,-90.0,55.0,-0.1,-99.9,55,29,19,29.88,29.75,9,2,0,0.36
2013-8-14,72.9,41.0,-90.0,53.0,19.6,-99.9,58,37,25,30.08,29.86,7,1,0,0.02
2013-8-15,78.3,42.7,-90.0,56.0,3.5,-99.9,59,33,27,30.15,30.06,9,1,0,0.01
2013-8-16,81.8,46.6,-90.0,59.0,3.7,-99.9,57,31,23,30.19,30.11,3,0,0,0.00
2013-8-17,82.7,37.4,-90.0,62.0,-6.7,-99.9,56,27,22,30.30,30.19,7,1,0,0.00
2013-8-18,83.0,29.0,-90.0,62.0,-10.0,-99.9,56,26,21,30.27,30.12,5,0,0,0.00
2013-8-19,88.2,33.3,-90.0,67.0,-8.0,-99.9,56,26,22,30.14,30.03,6,0,0,0.00
2013-8-20,88.3,30.6,-90.0,65.0,-2.5,-99.9,57,28,22,30.16,30.06,7,1,0,0.00
2013-8-21,90.6,31.2,-90.0,68.0,-6.3,-99.9,56,26,20,30.18,30.03,5,0,0,0.00
2013-8-22,88.7,11.6,-90.0,68.0,-20.0,-99.9,52,20,19,30.05,29.89,6,1,0,0.45
2013-8-23,81.1,8.0,-90.0,59.0,-14.5,-99.9,57,26,22,30.27,30.03,10,0,0,0.00
2013-8-24,78.4,25.4,-90.0,58.0,-9.1,-99.9,57,27,23,30.38,30.28,5,0,0,0.01
2013-8-25,86.9,46.3,-90.0,63.0,10.4,-99.9,57,33,20,30.36,30.12,6,0,0,0.00
2013-8-26,82.0,7.9,-90.0,54.0,-18.6,-99.9,51,18,19,30.14,29.92,6,1,0,0.69
2013-8-27,-36.1,-69.0,-90.0,-99.9,-99.9,-99.9,0,0,100,30.09,29.99,4,0,0,0.00
2013-8-28,-39.8,-72.5,-90.0,-99.9,-99.9,-99.9,0,0,100,30.15,30.05,6,1,0,0.46
2013-8-29,-22.5,-57.2,-90.0,-99.9,-99.9,-99.9,0,0,100,30.26,30.15,3,0,0,0.00
2013-8-30,-40.4,-71.7,-90.0,-99.9,-99.9,-99.9,0,0,100,30.18,29.95,5,0,0,0.01
2013-8-31,-90.0,-90.0,-90.0,-99.9,-99.9,-99.9,0,0,100,30.09,29.92,7,0,0,0.00
2013-9-1,-72.8,-88.4,-90.0,-99.9,-99.9,-99.9,0,0,100,30.08,29.98,7,2,0,0.09
2013-9-2,-39.2,-76.5,-90.0,-99.9,-99.9,-99.9,0,0,100,30.01,29.87,9,1,0,0.24
2013-9-3,-90.0,-90.0,-90.0,-99.9,-99.9,-99.9,0,0,100,30.17,29.99,6,1,0,0.00
2013-9-4,-79.7,-55.1,-90.0,-99.9,-99.9,-99.9,0,0,100,30.22,30.17,7,2,0,0.03
2013-9-5,-90.0,-41.2,-90.0,-99.9,-99.9,-99.9,0,0,100,30.45,30.19,5,0,0,0.00
2013-9-6,-90.0,-7.7,-90.0,-99.9,-99.9,-99.9,0,0,100,30.52,30.33,6,0,0,0.00
2013-9-7,-90.0,-39.4,-90.0,-99.9,-99.9,-99.9,0,0,100,30.33,30.10,5,0,0,0.03
2013-9-8,-75.1,-43.8,-90.0,-99.9,-99.9,-99.9,0,0,100,30.35,30.08,6,0,0,0.08
2013-9-9,-90.0,-11.2,-90.0,-99.9,-99.9,-99.9,0,0,100,30.39,30.20,4,0,0,0.01
2013-9-10,-82.0,-39.6,-90.0,-99.9,-99.9,-99.9,0,0,100,30.23,30.13,9,2,0,0.20
2013-9-11,-90.0,-37.9,-90.0,-99.9,-99.9,-99.9,0,0,100,30.27,30.13,9,1,0,0.00
2013-9-12,-82.0,-86.2,-90.0,-99.9,-99.9,-99.9,0,0,100,30.16,29.95,5,0,0,0.24
2013-9-13,-66.0,-83.1,-90.0,-99.9,-99.9,-99.9,0,0,100,30.22,29.97,3,0,0,0.33
2013-9-14,-72.8,-56.6,-90.0,-99.9,-99.9,-99.9,0,0,100,30.35,30.21,4,0,0,0.00
2013-9-15,-90.0,-20.6,-90.0,-99.9,-99.9,-99.9,0,0,100,30.39,30.27,4,0,0,0.02
2013-9-16,-90.0,-83.4,-90.0,-99.9,-99.9,-99.9,0,0,100,30.60,30.30,3,0,0,0.14
2013-9-17,34.4,-36.1,-90.0,-30.0,-92.5,-99.9,5,1,5,30.73,30.48,6,1,0,0.00
2013-9-18,-90.0,-18.9,-90.0,-99.9,-99.9,-99.9,0,0,100,30.47,30.33,6,0,0,0.00
2013-9-19,-90.0,-14.2,-90.0,-99.9,-99.9,-99.9,0,0,100,30.36,30.25,5,0,0,0.00
2013-9-20,34.4,-25.3,-90.0,-30.0,-94.1,-99.9,5,0,5,30.25,29.95,7,1,0,0.00
2013-9-21,-84.3,-66.6,-90.0,-99.9,-99.9,-99.9,0,0,100,29.95,29.83,10,1,0,1.00
2013-9-22,34.4,-73.0,-90.0,-30.0,-99.2,-99.9,5,0,5,30.23,29.95,5,1,0,0.00
2013-9-23,-90.0,-51.2,-90.0,-99.9,-99.9,-99.9,0,0,100,30.37,30.22,3,0,0,0.00
2013-9-24,-90.0,-32.8,-90.0,-99.9,-99.9,-99.9,0,0,100,30.37,30.23,5,0,0,0.00
2013-9-25,-90.0,-15.9,-90.0,-99.9,-99.9,-99.9,0,0,100,30.25,30.18,3,0,0,0.01
2013-9-26,34.4,-5.6,-90.0,-30.0,-94.0,-99.9,5,0,5,30.31,30.20,5,0,0,0.00
2013-9-27,34.4,-14.7,-90.0,-30.0,-93.3,-99.9,5,1,5,30.41,30.28,4,0,0,0.01
2013-9-28,34.4,-40.9,-90.0,-30.0,-92.5,-99.9,5,1,5,30.44,30.34,6,1,0,0.00
2013-9-29,-90.0,-48.3,-90.0,-99.9,-99.9,-99.9,0,0,100,30.36,30.23,4,1,0,0.00
2013-9-30,-90.0,-30.6,-90.0,-99.9,-99.9,-99.9,0,0,100,30.25,30.17,3,0,0,0.00
2013-10-1,34.4,-40.7,-90.0,-30.0,-93.2,-99.9,5,0,5,30.25,30.10,5,1,0,0.00
2013-10-2,-90.0,-37.5,-90.0,-99.9,-99.9,-99.9,0,0,100,30.32,30.10,9,1,0,0.00
2013-10-3,34.4,-35.6,-90.0,-30.0,-94.1,-99.9,5,0,5,30.38,30.21,3,0,0,0.00
2013-10-4,-82.0,-76.1,-90.0,-99.9,-99.9,-99.9,0,0,100,30.30,30.17,3,0,0,0.57
2013-10-5,-66.0,-84.5,-90.0,-99.9,-99.9,-99.9,0,0,100,30.33,30.26,4,0,0,0.02
2013-10-6,34.4,-58.0,-90.0,-30.0,-92.6,-99.9,5,1,5,30.25,29.91,16,3,0,0.28
2013-10-7,-90.0,-90.0,-90.0,-99.9,-99.9,-99.9,0,0,100,30.27,29.80,15,4,0,0.45
2013-10-8,-90.0,-61.9,-90.0,-99.9,-99.9,-99.9,0,0,100,30.59,30.27,4,0,0,0.00
2013-10-9,34.4,-66.5,-90.0,-30.0,-94.1,-99.9,5,0,5,30.64,30.48,5,1,0,0.01
2013-10-10,-90.0,-90.0,-90.0,-99.9,-99.9,-99.9,0,0,100,30.50,30.39,4,0,0,0.00
2013-10-11,-90.0,-90.0,-90.0,-99.9,-99.9,-99.9,0,0,100,30.39,30.32,4,0,0,0.00
2013-10-12,34.4,-80.9,-90.0,-30.0,-94.8,-99.9,5,0,5,30.41,30.34,10,1,0,0.00
2013-10-13,-90.0,-90.0,-90.0,-99.9,-99.9,-99.9,0,0,100,30.50,30.41,5,1,0,0.12
2013-10-14,34.4,-73.3,-90.0,-30.0,-92.6,-99.9,5,1,5,30.57,30.46,4,0,0,0.20
2013-10-15,34.4,-75.7,-90.0,-30.0,-91.9,-99.9,5,1,5,30.48,30.16,8,1,0,0.01
2013-10-16,-90.0,-90.0,-90.0,-99.9,-99.9,-99.9,0,0,100,30.16,29.99,10,1,0,0.21
2013-10-17,-90.0,-90.0,-90.0,-99.9,-99.9,-99.9,0,0,100,30.11,29.88,7,1,0,0.45
2013-10-18,-79.7,-89.6,-90.0,-99.9,-99.9,-99.9,0,0,100,30.13,29.93,12,2,0,0.11
2013-10-19,-90.0,-61.9,-90.0,-99.9,-99.9,-99.9,0,0,100,30.12,29.85,17,2,0,0.07
2013-10-20,-90.0,-63.8,-90.0,-99.9,-99.9,-99.9,0,0,100,30.21,29.97,6,2,0,0.00
2013-10-21,-90.0,-32.8,-90.0,-99.9,-99.9,-99.9,0,0,100,30.21,30.01,12,2,0,0.00
2013-10-22,-90.0,-7.3,-90.0,-99.9,-99.9,-99.9,0,0,100,30.05,29.91,12,2,0,0.16